sensor_id;sensor_type;location;lat;lon;timestamp;pressure;altitude;pressure_sealevel;temperature;humidity
16016;BME280;8112;53.592;10.184;2023-04-16T00:02:31;101577.00;;;6.88;100.00
16016;BME280;8112;53.592;10.184;2023-04-16T00:07:33;101588.19;;;6.93;100.00
16016;BME280;8112;53.592;10.184;2023-04-16T00:12:37;101578.84;;;6.84;100.00
16016;BME280;8112;53.592;10.184;2023-04-16T00:17:38;101578.28;;;6.73;100.00
16016;BME280;8112;53.592;10.184;2023-04-16T00:22:40;101574.88;;;6.70;100.00
16016;BME280;8112;53.592;10.184;2023-04-16T00:27:43;101590.81;;;6.63;100.00
16016;BME280;8112;53.592;10.184;2023-04-16T00:32:45;101578.72;;;6.57;100.00
16016;BME280;8112;53.592;10.184;2023-04-16T00:37:47;101583.00;;;6.61;100.00
16016;BME280;8112;53.592;10.184;2023-04-16T00:42:50;101583.72;;;6.66;100.00
16016;BME280;8112;53.592;10.184;2023-04-16T00:47:52;101588.28;;;6.60;100.00
16016;BME280;8112;53.592;10.184;2023-04-16T00:52:56;101585.56;;;6.63;100.00
16016;BME280;8112;53.592;10.184;2023-04-16T00:58:03;101582.94;;;6.63;100.00
16016;BME280;8112;53.592;10.184;2023-04-16T01:03:06;101585.66;;;6.60;100.00
16016;BME280;8112;53.592;10.184;2023-04-16T01:08:14;101596.00;;;6.64;100.00
16016;BME280;8112;53.592;10.184;2023-04-16T01:13:22;101587.75;;;6.78;100.00
16016;BME280;8112;53.592;10.184;2023-04-16T01:18:26;101596.19;;;6.88;100.00
16016;BME280;8112;53.592;10.184;2023-04-16T01:23:30;101593.25;;;6.99;100.00
16016;BME280;8112;53.592;10.184;2023-04-16T01:28:32;101587.78;;;7.07;100.00
16016;BME280;8112;53.592;10.184;2023-04-16T01:33:33;101587.63;;;7.11;100.00
16016;BME280;8112;53.592;10.184;2023-04-16T01:38:37;101598.03;;;7.15;100.00
16016;BME280;8112;53.592;10.184;2023-04-16T01:43:40;101592.81;;;7.13;100.00
16016;BME280;8112;53.592;10.184;2023-04-16T01:48:42;101592.81;;;7.13;100.00
16016;BME280;8112;53.592;10.184;2023-04-16T01:53:48;101585.16;;;7.07;100.00
16016;BME280;8112;53.592;10.184;2023-04-16T01:58:51;101606.47;;;7.24;100.00
16016;BME280;8112;53.592;10.184;2023-04-16T02:03:54;101599.63;;;7.19;100.00
16016;BME280;8112;53.592;10.184;2023-04-16T02:08:57;101608.41;;;7.18;100.00
16016;BME280;8112;53.592;10.184;2023-04-16T02:13:59;101599.13;;;7.07;100.00
16016;BME280;8112;53.592;10.184;2023-04-16T02:19:02;101613.84;;;7.11;100.00
16016;BME280;8112;53.592;10.184;2023-04-16T02:24:08;101611.25;;;7.10;100.00
16016;BME280;8112;53.592;10.184;2023-04-16T02:29:11;101613.97;;;7.07;100.00
16016;BME280;8112;53.592;10.184;2023-04-16T02:34:17;101615.81;;;7.03;100.00
16016;BME280;8112;53.592;10.184;2023-04-16T02:39:20;101612.16;;;7.09;100.00
16016;BME280;8112;53.592;10.184;2023-04-16T02:44:22;101624.09;;;7.19;100.00
16016;BME280;8112;53.592;10.184;2023-04-16T02:49:24;101624.81;;;7.24;100.00
16016;BME280;8112;53.592;10.184;2023-04-16T02:54:27;101621.81;;;7.37;100.00
16016;BME280;8112;53.592;10.184;2023-04-16T02:59:28;101621.41;;;7.49;100.00
16016;BME280;8112;53.592;10.184;2023-04-16T03:04:31;101622.16;;;7.54;100.00
16016;BME280;8112;53.592;10.184;2023-04-16T03:09:34;101629.81;;;7.61;100.00
16016;BME280;8112;53.592;10.184;2023-04-16T03:14:36;101629.59;;;7.67;100.00
16016;BME280;8112;53.592;10.184;2023-04-16T03:19:38;101635.63;;;7.70;100.00
16016;BME280;8112;53.592;10.184;2023-04-16T03:24:41;101625.94;;;7.73;100.00
16016;BME280;8112;53.592;10.184;2023-04-16T03:29:42;101627.50;;;7.78;100.00
16016;BME280;8112;53.592;10.184;2023-04-16T03:34:44;101636.94;;;7.84;100.00
16016;BME280;8112;53.592;10.184;2023-04-16T03:39:48;101634.41;;;7.81;100.00
16016;BME280;8112;53.592;10.184;2023-04-16T03:44:50;101635.22;;;7.83;100.00
16016;BME280;8112;53.592;10.184;2023-04-16T03:49:53;101635.34;;;7.80;100.00
16016;BME280;8112;53.592;10.184;2023-04-16T03:54:56;101638.75;;;7.82;100.00
16016;BME280;8112;53.592;10.184;2023-04-16T04:00:01;101636.97;;;7.82;100.00
16016;BME280;8112;53.592;10.184;2023-04-16T04:05:14;101642.28;;;7.81;100.00
16016;BME280;8112;53.592;10.184;2023-04-16T04:10:20;101641.41;;;7.80;100.00
16016;BME280;8112;53.592;10.184;2023-04-16T04:15:21;101649.16;;;7.85;100.00
16016;BME280;8112;53.592;10.184;2023-04-16T04:20:23;101653.44;;;7.88;100.00
16016;BME280;8112;53.592;10.184;2023-04-16T04:25:28;101649.03;;;7.88;100.00
16016;BME280;8112;53.592;10.184;2023-04-16T04:30:32;101663.75;;;7.94;100.00
16016;BME280;8112;53.592;10.184;2023-04-16T04:35:35;101665.44;;;7.95;100.00
16016;BME280;8112;53.592;10.184;2023-04-16T04:40:38;101665.34;;;7.98;100.00
16016;BME280;8112;53.592;10.184;2023-04-16T04:45:42;101666.91;;;8.04;100.00
16016;BME280;8112;53.592;10.184;2023-04-16T04:50:44;101673.78;;;8.08;100.00
16016;BME280;8112;53.592;10.184;2023-04-16T04:55:47;101672.75;;;8.12;100.00
16016;BME280;8112;53.592;10.184;2023-04-16T05:00:49;101674.28;;;8.19;100.00
16016;BME280;8112;53.592;10.184;2023-04-16T05:05:51;101677.75;;;8.20;100.00
16016;BME280;8112;53.592;10.184;2023-04-16T05:10:54;101689.88;;;8.24;100.00
16016;BME280;8112;53.592;10.184;2023-04-16T05:15:55;101680.91;;;8.30;100.00
16016;BME280;8112;53.592;10.184;2023-04-16T05:20:57;101680.19;;;8.26;100.00
16016;BME280;8112;53.592;10.184;2023-04-16T05:26:00;101701.75;;;8.36;100.00
16016;BME280;8112;53.592;10.184;2023-04-16T05:31:02;101702.28;;;8.46;100.00
16016;BME280;8112;53.592;10.184;2023-04-16T05:36:04;101701.38;;;8.47;100.00
16016;BME280;8112;53.592;10.184;2023-04-16T05:41:07;101716.31;;;8.45;100.00
16016;BME280;8112;53.592;10.184;2023-04-16T05:46:08;101728.75;;;8.66;100.00
16016;BME280;8112;53.592;10.184;2023-04-16T05:51:10;101715.19;;;8.79;100.00
16016;BME280;8112;53.592;10.184;2023-04-16T05:56:13;101715.78;;;8.86;100.00
16016;BME280;8112;53.592;10.184;2023-04-16T06:01:15;101724.28;;;8.94;100.00
16016;BME280;8112;53.592;10.184;2023-04-16T06:06:16;101731.16;;;8.96;100.00
16016;BME280;8112;53.592;10.184;2023-04-16T06:11:19;101728.63;;;8.95;100.00
16016;BME280;8112;53.592;10.184;2023-04-16T06:16:21;101736.38;;;8.98;100.00
16016;BME280;8112;53.592;10.184;2023-04-16T06:21:23;101733.00;;;8.94;100.00
16016;BME280;8112;53.592;10.184;2023-04-16T06:26:26;101739.94;;;8.97;100.00
16016;BME280;8112;53.592;10.184;2023-04-16T06:31:28;101737.47;;;8.92;100.00
16016;BME280;8112;53.592;10.184;2023-04-16T06:36:30;101748.06;;;8.91;100.00
16016;BME280;8112;53.592;10.184;2023-04-16T06:41:33;101755.38;;;9.06;100.00
16016;BME280;8112;53.592;10.184;2023-04-16T06:46:35;101756.72;;;9.18;100.00
16016;BME280;8112;53.592;10.184;2023-04-16T06:51:37;101758.66;;;9.37;100.00
16016;BME280;8112;53.592;10.184;2023-04-16T06:56:40;101749.03;;;9.60;100.00
16016;BME280;8112;53.592;10.184;2023-04-16T07:01:41;101751.19;;;9.72;100.00
16016;BME280;8112;53.592;10.184;2023-04-16T07:06:43;101754.03;;;9.66;100.00
16016;BME280;8112;53.592;10.184;2023-04-16T07:11:47;101757.25;;;9.74;100.00
16016;BME280;8112;53.592;10.184;2023-04-16T07:16:48;101758.16;;;9.73;100.00
16016;BME280;8112;53.592;10.184;2023-04-16T07:21:50;101757.25;;;9.74;100.00
16016;BME280;8112;53.592;10.184;2023-04-16T07:26:53;101762.69;;;9.69;100.00
16016;BME280;8112;53.592;10.184;2023-04-16T07:31:55;101780.97;;;9.73;100.00
16016;BME280;8112;53.592;10.184;2023-04-16T07:36:57;101778.09;;;9.57;100.00
16016;BME280;8112;53.592;10.184;2023-04-16T07:42:00;101780.34;;;9.44;100.00
16016;BME280;8112;53.592;10.184;2023-04-16T07:47:02;101786.19;;;9.50;100.00
16016;BME280;8112;53.592;10.184;2023-04-16T07:52:04;101781.53;;;9.59;100.00
16016;BME280;8112;53.592;10.184;2023-04-16T07:57:07;101787.50;;;9.86;100.00
16016;BME280;8112;53.592;10.184;2023-04-16T08:02:12;101798.56;;;9.94;100.00
16016;BME280;8112;53.592;10.184;2023-04-16T08:07:14;101790.63;;;9.96;100.00
16016;BME280;8112;53.592;10.184;2023-04-16T08:12:18;101795.59;;;10.04;100.00
16016;BME280;8112;53.592;10.184;2023-04-16T08:17:20;101796.91;;;10.14;100.00
16016;BME280;8112;53.592;10.184;2023-04-16T08:22:21;101800.38;;;10.59;100.00
16016;BME280;8112;53.592;10.184;2023-04-16T08:27:25;101801.19;;;11.03;100.00
16016;BME280;8112;53.592;10.184;2023-04-16T08:32:26;101810.94;;;11.21;100.00
16016;BME280;8112;53.592;10.184;2023-04-16T08:37:28;101809.63;;;11.11;100.00
16016;BME280;8112;53.592;10.184;2023-04-16T08:42:32;101815.56;;;10.95;100.00
16016;BME280;8112;53.592;10.184;2023-04-16T08:47:36;101813.72;;;10.97;100.00
16016;BME280;8112;53.592;10.184;2023-04-16T08:52:44;101818.59;;;11.07;100.00
16016;BME280;8112;53.592;10.184;2023-04-16T08:57:50;101818.66;;;11.05;100.00
16016;BME280;8112;53.592;10.184;2023-04-16T09:02:53;101819.00;;;11.18;100.00
16016;BME280;8112;53.592;10.184;2023-04-16T09:07:55;101821.97;;;11.10;100.00
16016;BME280;8112;53.592;10.184;2023-04-16T09:12:58;101828.44;;;11.43;100.00
16016;BME280;8112;53.592;10.184;2023-04-16T09:18:00;101828.53;;;11.61;100.00
16016;BME280;8112;53.592;10.184;2023-04-16T09:23:02;101827.47;;;11.65;100.00
16016;BME280;8112;53.592;10.184;2023-04-16T09:28:05;101836.59;;;11.77;100.00
16016;BME280;8112;53.592;10.184;2023-04-16T09:33:12;101839.00;;;12.39;100.00
16016;BME280;8112;53.592;10.184;2023-04-16T09:38:16;101833.53;;;12.24;100.00
16016;BME280;8112;53.592;10.184;2023-04-16T09:43:21;101837.06;;;12.60;100.00
16016;BME280;8112;53.592;10.184;2023-04-16T09:48:29;101839.63;;;13.15;100.00
16016;BME280;8112;53.592;10.184;2023-04-16T09:53:32;101843.44;;;12.74;100.00
16016;BME280;8112;53.592;10.184;2023-04-16T09:58:36;101850.91;;;12.48;100.00
16016;BME280;8112;53.592;10.184;2023-04-16T10:03:39;101864.41;;;12.42;100.00
16016;BME280;8112;53.592;10.184;2023-04-16T10:08:46;101864.22;;;12.64;100.00
16016;BME280;8112;53.592;10.184;2023-04-16T10:13:50;101862.28;;;12.67;100.00
16016;BME280;8112;53.592;10.184;2023-04-16T10:18:52;101872.44;;;12.21;100.00
16016;BME280;8112;53.592;10.184;2023-04-16T10:23:55;101865.03;;;12.10;100.00
16016;BME280;8112;53.592;10.184;2023-04-16T10:28:59;101871.88;;;11.95;100.00
16016;BME280;8112;53.592;10.184;2023-04-16T10:34:01;101880.09;;;12.27;100.00
16016;BME280;8112;53.592;10.184;2023-04-16T10:39:03;101884.91;;;12.56;100.00
16016;BME280;8112;53.592;10.184;2023-04-16T10:44:12;101894.19;;;12.64;100.00
16016;BME280;8112;53.592;10.184;2023-04-16T10:49:15;101892.75;;;12.57;100.00
16016;BME280;8112;53.592;10.184;2023-04-16T10:54:20;101895.75;;;12.13;100.00
16016;BME280;8112;53.592;10.184;2023-04-16T10:59:29;101905.78;;;11.85;100.00
16016;BME280;8112;53.592;10.184;2023-04-16T11:04:35;101906.38;;;11.52;100.00
16016;BME280;8112;53.592;10.184;2023-04-16T11:09:45;101902.09;;;11.29;100.00
16016;BME280;8112;53.592;10.184;2023-04-16T11:14:51;101908.09;;;11.11;100.00
16016;BME280;8112;53.592;10.184;2023-04-16T11:19:53;101913.75;;;11.23;100.00
16016;BME280;8112;53.592;10.184;2023-04-16T11:24:56;101902.88;;;11.31;100.00
16016;BME280;8112;53.592;10.184;2023-04-16T11:30:01;101914.91;;;11.38;100.00
16016;BME280;8112;53.592;10.184;2023-04-16T11:35:12;101910.00;;;11.29;100.00
16016;BME280;8112;53.592;10.184;2023-04-16T11:40:16;101917.81;;;11.72;100.00
16016;BME280;8112;53.592;10.184;2023-04-16T11:45:19;101912.84;;;11.84;100.00
16016;BME280;8112;53.592;10.184;2023-04-16T11:50:23;101907.44;;;11.67;100.00
16016;BME280;8112;53.592;10.184;2023-04-16T11:55:25;101916.78;;;11.95;100.00
16016;BME280;8112;53.592;10.184;2023-04-16T12:00:34;101924.81;;;12.13;100.00
16016;BME280;8112;53.592;10.184;2023-04-16T12:05:37;101934.72;;;12.07;100.00
16016;BME280;8112;53.592;10.184;2023-04-16T12:10:52;101934.72;;;12.07;100.00
16016;BME280;8112;53.592;10.184;2023-04-16T12:15:55;101931.44;;;12.40;100.00
16016;BME280;8112;53.592;10.184;2023-04-16T12:20:57;101927.38;;;12.33;100.00
16016;BME280;8112;53.592;10.184;2023-04-16T12:26:05;101937.66;;;12.01;100.00
16016;BME280;8112;53.592;10.184;2023-04-16T12:31:35;101937.09;;;11.74;100.00
16016;BME280;8112;53.592;10.184;2023-04-16T12:36:41;101931.91;;;11.72;100.00
16016;BME280;8112;53.592;10.184;2023-04-16T12:41:43;101930.41;;;11.46;100.00
16016;BME280;8112;53.592;10.184;2023-04-16T12:46:47;101942.56;;;11.69;100.00
16016;BME280;8112;53.592;10.184;2023-04-16T12:51:49;101939.72;;;11.54;100.00
16016;BME280;8112;53.592;10.184;2023-04-16T12:56:51;101937.72;;;11.79;100.00
16016;BME280;8112;53.592;10.184;2023-04-16T13:01:54;101948.53;;;11.74;100.00
16016;BME280;8112;53.592;10.184;2023-04-16T13:06:56;101953.28;;;11.66;100.00
16016;BME280;8112;53.592;10.184;2023-04-16T13:11:59;101958.44;;;11.48;100.00
16016;BME280;8112;53.592;10.184;2023-04-16T13:17:02;101958.56;;;11.45;100.00
16016;BME280;8112;53.592;10.184;2023-04-16T13:22:04;101960.16;;;11.49;100.00
16016;BME280;8112;53.592;10.184;2023-04-16T13:27:05;101965.28;;;11.73;100.00
16016;BME280;8112;53.592;10.184;2023-04-16T13:32:09;101970.66;;;12.11;100.00
16016;BME280;8112;53.592;10.184;2023-04-16T13:37:13;101958.31;;;11.91;100.00
16016;BME280;8112;53.592;10.184;2023-04-16T13:42:14;101961.59;;;11.77;100.00
16016;BME280;8112;53.592;10.184;2023-04-16T13:47:17;101953.06;;;11.71;100.00
16016;BME280;8112;53.592;10.184;2023-04-16T13:52:19;101954.72;;;11.52;100.00
16016;BME280;8112;53.592;10.184;2023-04-16T13:57:21;101965.78;;;11.62;100.00
16016;BME280;8112;53.592;10.184;2023-04-16T14:02:24;101950.94;;;11.79;100.00
16016;BME280;8112;53.592;10.184;2023-04-16T14:07:26;101950.88;;;11.80;100.00
16016;BME280;8112;53.592;10.184;2023-04-16T14:12:31;101961.06;;;11.90;100.00
16016;BME280;8112;53.592;10.184;2023-04-16T14:18:09;101959.19;;;11.92;100.00
16016;BME280;8112;53.592;10.184;2023-04-16T14:23:12;101959.97;;;11.94;100.00
16016;BME280;8112;53.592;10.184;2023-04-16T14:28:15;101955.34;;;11.99;100.00
16016;BME280;8112;53.592;10.184;2023-04-16T14:33:18;101962.78;;;12.10;100.00
16016;BME280;8112;53.592;10.184;2023-04-16T14:38:21;101955.22;;;12.02;100.00
16016;BME280;8112;53.592;10.184;2023-04-16T14:43:23;101969.75;;;12.13;100.00
16016;BME280;8112;53.592;10.184;2023-04-16T14:48:26;101954.81;;;12.11;100.00
16016;BME280;8112;53.592;10.184;2023-04-16T14:53:28;101960.09;;;12.11;100.00
16016;BME280;8112;53.592;10.184;2023-04-16T14:58:31;101963.16;;;12.02;100.00
16016;BME280;8112;53.592;10.184;2023-04-16T15:03:36;101977.41;;;11.98;100.00
16016;BME280;8112;53.592;10.184;2023-04-16T15:08:38;101975.22;;;12.08;100.00
16016;BME280;8112;53.592;10.184;2023-04-16T15:13:46;101976.75;;;11.93;100.00
16016;BME280;8112;53.592;10.184;2023-04-16T15:18:49;101972.00;;;11.80;100.00
16016;BME280;8112;53.592;10.184;2023-04-16T15:23:51;101973.19;;;11.94;100.00
16016;BME280;8112;53.592;10.184;2023-04-16T15:28:53;101972.38;;;12.13;100.00
16016;BME280;8112;53.592;10.184;2023-04-16T15:33:56;101978.09;;;12.22;100.00
16016;BME280;8112;53.592;10.184;2023-04-16T15:38:59;101981.75;;;11.99;100.00
16016;BME280;8112;53.592;10.184;2023-04-16T15:44:02;101980.00;;;11.79;100.00
16016;BME280;8112;53.592;10.184;2023-04-16T15:49:05;101978.16;;;11.81;100.00
16016;BME280;8112;53.592;10.184;2023-04-16T15:54:07;101979.69;;;11.66;100.00
16016;BME280;8112;53.592;10.184;2023-04-16T15:59:08;101987.72;;;11.83;100.00
16016;BME280;8112;53.592;10.184;2023-04-16T16:04:11;101987.41;;;11.71;100.00
16016;BME280;8112;53.592;10.184;2023-04-16T16:09:13;101993.56;;;11.71;100.00
16016;BME280;8112;53.592;10.184;2023-04-16T16:14:15;101993.28;;;11.57;100.00
16016;BME280;8112;53.592;10.184;2023-04-16T16:19:20;101994.72;;;11.43;100.00
16016;BME280;8112;53.592;10.184;2023-04-16T16:24:23;101979.34;;;11.53;100.00
16016;BME280;8112;53.592;10.184;2023-04-16T16:29:24;101991.69;;;11.52;100.00
16016;BME280;8112;53.592;10.184;2023-04-16T16:34:27;101993.06;;;11.61;100.00
16016;BME280;8112;53.592;10.184;2023-04-16T16:39:29;102002.84;;;11.38;100.00
16016;BME280;8112;53.592;10.184;2023-04-16T16:44:31;102004.03;;;11.31;100.00
16016;BME280;8112;53.592;10.184;2023-04-16T16:49:35;102004.13;;;11.07;100.00
16016;BME280;8112;53.592;10.184;2023-04-16T16:54:36;102014.91;;;11.01;100.00
16016;BME280;8112;53.592;10.184;2023-04-16T16:59:38;102016.16;;;10.92;100.00
16016;BME280;8112;53.592;10.184;2023-04-16T17:10:43;102027.28;;;10.77;100.00
16016;BME280;8112;53.592;10.184;2023-04-16T17:15:45;102023.19;;;10.69;100.00
16016;BME280;8112;53.592;10.184;2023-04-16T17:20:47;102034.81;;;10.64;100.00
16016;BME280;8112;53.592;10.184;2023-04-16T17:25:50;102043.81;;;10.58;100.00
16016;BME280;8112;53.592;10.184;2023-04-16T17:30:52;102050.00;;;10.57;100.00
16016;BME280;8112;53.592;10.184;2023-04-16T17:35:55;102056.44;;;10.50;100.00
16016;BME280;8112;53.592;10.184;2023-04-16T17:41:01;102058.72;;;10.59;100.00
16016;BME280;8112;53.592;10.184;2023-04-16T17:46:03;102068.19;;;10.41;100.00
16016;BME280;8112;53.592;10.184;2023-04-16T17:51:10;102066.44;;;10.40;100.00
16016;BME280;8112;53.592;10.184;2023-04-16T17:56:13;102074.38;;;10.38;100.00
16016;BME280;8112;53.592;10.184;2023-04-16T18:01:15;102067.63;;;10.31;100.00
16016;BME280;8112;53.592;10.184;2023-04-16T18:06:17;102085.66;;;10.18;100.00
16016;BME280;8112;53.592;10.184;2023-04-16T18:11:20;102087.00;;;10.05;100.00
16016;BME280;8112;53.592;10.184;2023-04-16T18:16:22;102094.22;;;10.00;100.00
16016;BME280;8112;53.592;10.184;2023-04-16T18:21:23;102106.13;;;9.84;100.00
16016;BME280;8112;53.592;10.184;2023-04-16T18:26:26;102115.75;;;9.86;100.00
16016;BME280;8112;53.592;10.184;2023-04-16T18:31:28;102125.56;;;9.80;100.00
16016;BME280;8112;53.592;10.184;2023-04-16T18:36:30;102123.25;;;9.71;100.00
16016;BME280;8112;53.592;10.184;2023-04-16T18:41:33;102116.97;;;9.48;100.00
16016;BME280;8112;53.592;10.184;2023-04-16T18:46:35;102126.50;;;9.52;100.00
16016;BME280;8112;53.592;10.184;2023-04-16T18:51:37;102142.56;;;9.43;100.00
16016;BME280;8112;53.592;10.184;2023-04-16T18:56:40;102137.97;;;9.50;100.00
16016;BME280;8112;53.592;10.184;2023-04-16T19:01:42;102151.16;;;9.48;100.00
16016;BME280;8112;53.592;10.184;2023-04-16T19:06:44;102159.38;;;9.39;100.00
16016;BME280;8112;53.592;10.184;2023-04-16T19:11:48;102157.69;;;9.36;100.00
16016;BME280;8112;53.592;10.184;2023-04-16T19:16:50;102158.66;;;9.34;100.00
16016;BME280;8112;53.592;10.184;2023-04-16T19:21:52;102165.81;;;9.29;100.00
16016;BME280;8112;53.592;10.184;2023-04-16T19:26:55;102166.78;;;9.26;100.00
16016;BME280;8112;53.592;10.184;2023-04-16T19:31:57;102167.81;;;9.20;100.00
16016;BME280;8112;53.592;10.184;2023-04-16T19:36:58;102171.53;;;9.13;100.00
16016;BME280;8112;53.592;10.184;2023-04-16T19:42:02;102175.00;;;9.15;100.00
16016;BME280;8112;53.592;10.184;2023-04-16T19:47:03;102170.72;;;9.11;100.00
16016;BME280;8112;53.592;10.184;2023-04-16T19:52:06;102176.97;;;9.07;100.00
16016;BME280;8112;53.592;10.184;2023-04-16T19:57:09;102178.69;;;9.08;100.00
16016;BME280;8112;53.592;10.184;2023-04-16T20:02:11;102173.63;;;9.02;100.00
16016;BME280;8112;53.592;10.184;2023-04-16T20:07:12;102176.06;;;9.08;100.00
16016;BME280;8112;53.592;10.184;2023-04-16T20:12:15;102173.63;;;9.02;100.00
16016;BME280;8112;53.592;10.184;2023-04-16T20:17:17;102180.63;;;9.03;100.00
16016;BME280;8112;53.592;10.184;2023-04-16T20:22:19;102187.53;;;9.05;100.00
16016;BME280;8112;53.592;10.184;2023-04-16T20:27:22;102191.84;;;9.08;100.00
16016;BME280;8112;53.592;10.184;2023-04-16T20:32:24;102186.59;;;9.08;100.00
16016;BME280;8112;53.592;10.184;2023-04-16T20:37:26;102190.31;;;9.01;100.00
16016;BME280;8112;53.592;10.184;2023-04-16T20:42:29;102190.22;;;9.04;100.00
16016;BME280;8112;53.592;10.184;2023-04-16T20:47:31;102187.00;;;8.94;100.00
16016;BME280;8112;53.592;10.184;2023-04-16T20:52:34;102191.47;;;8.90;100.00
16016;BME280;8112;53.592;10.184;2023-04-16T20:57:37;102188.97;;;8.86;100.00
16016;BME280;8112;53.592;10.184;2023-04-16T21:02:38;102189.16;;;8.79;100.00
16016;BME280;8112;53.592;10.184;2023-04-16T21:07:41;102193.63;;;8.76;100.00
16016;BME280;8112;53.592;10.184;2023-04-16T21:12:44;102193.63;;;8.76;100.00
16016;BME280;8112;53.592;10.184;2023-04-16T21:17:45;102201.88;;;8.63;100.00
16016;BME280;8112;53.592;10.184;2023-04-16T21:22:47;102206.31;;;8.61;100.00
16016;BME280;8112;53.592;10.184;2023-04-16T21:27:52;102206.34;;;8.60;100.00
16016;BME280;8112;53.592;10.184;2023-04-16T21:32:53;102211.63;;;8.58;100.00
16016;BME280;8112;53.592;10.184;2023-04-16T21:37:55;102211.72;;;8.55;100.00
16016;BME280;8112;53.592;10.184;2023-04-16T21:42:58;102204.81;;;8.51;100.00
16016;BME280;8112;53.592;10.184;2023-04-16T21:48:00;102200.53;;;8.47;100.00
16016;BME280;8112;53.592;10.184;2023-04-16T21:53:02;102205.72;;;8.48;100.00
16016;BME280;8112;53.592;10.184;2023-04-16T21:58:06;102197.00;;;8.48;100.00
16016;BME280;8112;53.592;10.184;2023-04-16T22:03:08;102194.50;;;8.41;100.00
16016;BME280;8112;53.592;10.184;2023-04-16T22:08:11;102197.09;;;8.43;100.00
16016;BME280;8112;53.592;10.184;2023-04-16T22:13:15;102203.94;;;8.50;100.00
16016;BME280;8112;53.592;10.184;2023-04-16T22:18:17;102207.22;;;8.60;100.00
16016;BME280;8112;53.592;10.184;2023-04-16T22:23:19;102216.81;;;8.61;100.00
16016;BME280;8112;53.592;10.184;2023-04-16T22:28:22;102216.66;;;8.67;100.00
16016;BME280;8112;53.592;10.184;2023-04-16T22:33:24;102219.44;;;8.61;100.00
16016;BME280;8112;53.592;10.184;2023-04-16T22:38:26;102223.09;;;8.55;100.00
16016;BME280;8112;53.592;10.184;2023-04-16T22:43:29;102216.06;;;8.56;100.00
16016;BME280;8112;53.592;10.184;2023-04-16T22:48:30;102219.91;;;8.43;100.00
16016;BME280;8112;53.592;10.184;2023-04-16T22:53:33;102211.31;;;8.36;100.00
16016;BME280;8112;53.592;10.184;2023-04-16T22:58:37;102214.88;;;8.33;100.00
16016;BME280;8112;53.592;10.184;2023-04-16T23:03:39;102214.09;;;8.30;100.00
16016;BME280;8112;53.592;10.184;2023-04-16T23:08:40;102211.50;;;8.28;100.00
16016;BME280;8112;53.592;10.184;2023-04-16T23:13:43;102223.75;;;8.29;100.00
16016;BME280;8112;53.592;10.184;2023-04-16T23:18:45;102213.97;;;8.34;100.00
16016;BME280;8112;53.592;10.184;2023-04-16T23:23:47;102215.88;;;8.29;100.00
16016;BME280;8112;53.592;10.184;2023-04-16T23:28:50;102213.06;;;8.35;100.00
16016;BME280;8112;53.592;10.184;2023-04-16T23:33:52;102206.78;;;8.43;100.00
16016;BME280;8112;53.592;10.184;2023-04-16T23:38:54;102214.72;;;8.39;100.00
16016;BME280;8112;53.592;10.184;2023-04-16T23:43:57;102214.72;;;8.39;100.00
16016;BME280;8112;53.592;10.184;2023-04-16T23:48:59;102210.97;;;8.48;100.00
16016;BME280;8112;53.592;10.184;2023-04-16T23:54:00;102210.13;;;8.48;100.00
16016;BME280;8112;53.592;10.184;2023-04-16T23:59:04;102204.16;;;8.43;100.00
